sensor_id;sensor_type;location;lat;lon;timestamp;pressure;altitude;pressure_sealevel;temperature;humidity
33265;BME280;31404;53.974;-1.086;2023-04-23T00:00:35;100158.17;;;12.90;62.17
33265;BME280;31404;53.974;-1.086;2023-04-23T00:05:29;100159.88;;;13.08;60.13
33265;BME280;31404;53.974;-1.086;2023-04-23T00:10:34;100152.62;;;13.47;58.66
33265;BME280;31404;53.974;-1.086;2023-04-23T00:15:35;100149.57;;;13.19;59.77
33265;BME280;31404;53.974;-1.086;2023-04-23T00:20:35;100142.09;;;13.95;60.33
33265;BME280;31404;53.974;-1.086;2023-04-23T00:25:35;100142.97;;;13.60;62.38
33265;BME280;31404;53.974;-1.086;2023-04-23T00:30:35;100132.53;;;14.23;62.38
33265;BME280;31404;53.974;-1.086;2023-04-23T00:35:35;100132.28;;;13.68;64.12
33265;BME280;31404;53.974;-1.086;2023-04-23T00:40:35;100125.65;;;14.09;62.99
33265;BME280;31404;53.974;-1.086;2023-04-23T00:45:34;100119.91;;;14.01;63.41
33265;BME280;31404;53.974;-1.086;2023-04-23T00:50:34;100116.38;;;13.79;64.39
33265;BME280;31404;53.974;-1.086;2023-04-23T00:55:35;100114.35;;;12.09;69.54
33265;BME280;31404;53.974;-1.086;2023-04-23T01:05:35;100112.80;;;9.89;75.87
33265;BME280;31404;53.974;-1.086;2023-04-23T01:10:35;100108.16;;;9.80;76.85
33265;BME280;31404;53.974;-1.086;2023-04-23T01:15:35;100102.17;;;10.54;74.55
33265;BME280;31404;53.974;-1.086;2023-04-23T01:20:34;100092.10;;;11.92;70.11
33265;BME280;31404;53.974;-1.086;2023-04-23T01:25:34;100090.87;;;11.92;69.25
33265;BME280;31404;53.974;-1.086;2023-04-23T01:30:35;100090.78;;;12.91;67.12
33265;BME280;31404;53.974;-1.086;2023-04-23T01:35:35;100083.70;;;12.34;67.96
33265;BME280;31404;53.974;-1.086;2023-04-23T01:40:35;100080.69;;;13.28;66.37
33265;BME280;31404;53.974;-1.086;2023-04-23T01:45:34;100083.46;;;12.83;68.66
33265;BME280;31404;53.974;-1.086;2023-04-23T01:50:35;100081.58;;;9.93;78.31
33265;BME280;31404;53.974;-1.086;2023-04-23T01:55:37;100074.23;;;10.78;77.13
33265;BME280;31404;53.974;-1.086;2023-04-23T02:00:34;100075.34;;;12.44;71.10
33265;BME280;31404;53.974;-1.086;2023-04-23T02:05:35;100070.36;;;9.10;81.19
33265;BME280;31404;53.974;-1.086;2023-04-23T02:10:34;100067.22;;;8.95;81.62
33265;BME280;31404;53.974;-1.086;2023-04-23T02:15:34;100056.05;;;9.41;81.15
33265;BME280;31404;53.974;-1.086;2023-04-23T02:20:35;100058.97;;;10.11;78.38
33265;BME280;31404;53.974;-1.086;2023-04-23T02:25:35;100064.27;;;10.62;75.03
33265;BME280;31404;53.974;-1.086;2023-04-23T02:30:35;100064.03;;;11.02;74.37
33265;BME280;31404;53.974;-1.086;2023-04-23T02:35:35;100062.48;;;9.63;78.36
33265;BME280;31404;53.974;-1.086;2023-04-23T02:40:35;100054.96;;;9.93;78.35
33265;BME280;31404;53.974;-1.086;2023-04-23T02:45:34;100055.69;;;10.53;77.02
33265;BME280;31404;53.974;-1.086;2023-04-23T02:50:34;100051.52;;;9.43;79.64
33265;BME280;31404;53.974;-1.086;2023-04-23T02:55:34;100053.64;;;9.39;80.51
33265;BME280;31404;53.974;-1.086;2023-04-23T03:00:34;100048.92;;;9.25;82.19
33265;BME280;31404;53.974;-1.086;2023-04-23T03:05:34;100049.87;;;9.00;84.43
33265;BME280;31404;53.974;-1.086;2023-04-23T03:10:35;100053.57;;;10.43;78.68
33265;BME280;31404;53.974;-1.086;2023-04-23T03:15:35;100046.92;;;12.20;72.49
33265;BME280;31404;53.974;-1.086;2023-04-23T03:20:34;100043.67;;;11.06;75.38
33265;BME280;31404;53.974;-1.086;2023-04-23T03:25:34;100037.17;;;12.42;72.07
33265;BME280;31404;53.974;-1.086;2023-04-23T03:30:35;100031.49;;;12.69;70.59
33265;BME280;31404;53.974;-1.086;2023-04-23T03:35:35;100029.48;;;11.77;73.51
33265;BME280;31404;53.974;-1.086;2023-04-23T03:40:35;100027.43;;;12.60;71.48
33265;BME280;31404;53.974;-1.086;2023-04-23T03:45:35;100020.29;;;12.63;71.25
33265;BME280;31404;53.974;-1.086;2023-04-23T03:50:35;100021.99;;;11.74;74.06
33265;BME280;31404;53.974;-1.086;2023-04-23T03:55:36;100023.17;;;11.87;73.96
33265;BME280;31404;53.974;-1.086;2023-04-23T04:00:34;100025.82;;;10.04;79.08
33265;BME280;31404;53.974;-1.086;2023-04-23T04:05:34;100018.15;;;10.77;77.48
33265;BME280;31404;53.974;-1.086;2023-04-23T04:10:34;100015.30;;;10.73;77.39
33265;BME280;31404;53.974;-1.086;2023-04-23T04:15:34;100013.83;;;9.73;81.48
33265;BME280;31404;53.974;-1.086;2023-04-23T04:20:34;100011.30;;;9.53;81.51
33265;BME280;31404;53.974;-1.086;2023-04-23T04:25:34;100008.36;;;10.24;81.13
33265;BME280;31404;53.974;-1.086;2023-04-23T04:30:34;100002.10;;;12.25;73.02
33265;BME280;31404;53.974;-1.086;2023-04-23T04:35:34;99996.12;;;12.48;72.27
33265;BME280;31404;53.974;-1.086;2023-04-23T04:40:34;99994.86;;;12.63;70.97
33265;BME280;31404;53.974;-1.086;2023-04-23T04:45:34;99992.27;;;12.44;70.18
33265;BME280;31404;53.974;-1.086;2023-04-23T04:50:34;99998.35;;;11.47;73.51
33265;BME280;31404;53.974;-1.086;2023-04-23T04:55:34;99999.40;;;11.61;73.49
33265;BME280;31404;53.974;-1.086;2023-04-23T05:00:34;100010.42;;;10.34;78.19
33265;BME280;31404;53.974;-1.086;2023-04-23T05:05:34;100007.33;;;11.16;75.91
33265;BME280;31404;53.974;-1.086;2023-04-23T05:10:34;100007.84;;;11.47;74.93
33265;BME280;31404;53.974;-1.086;2023-04-23T05:15:34;100005.55;;;11.50;74.10
33265;BME280;31404;53.974;-1.086;2023-04-23T05:20:34;100009.65;;;11.10;74.83
33265;BME280;31404;53.974;-1.086;2023-04-23T05:25:37;100012.87;;;11.18;74.09
33265;BME280;31404;53.974;-1.086;2023-04-23T05:30:34;100011.15;;;11.46;73.61
33265;BME280;31404;53.974;-1.086;2023-04-23T05:35:34;100007.28;;;10.19;77.50
33265;BME280;31404;53.974;-1.086;2023-04-23T05:40:34;100009.61;;;8.99;83.23
33265;BME280;31404;53.974;-1.086;2023-04-23T05:45:35;100007.50;;;10.34;79.10
33265;BME280;31404;53.974;-1.086;2023-04-23T05:50:35;100003.14;;;9.71;81.06
33265;BME280;31404;53.974;-1.086;2023-04-23T05:55:35;100000.09;;;10.46;77.21
33265;BME280;31404;53.974;-1.086;2023-04-23T06:00:35;100002.60;;;10.70;76.13
33265;BME280;31404;53.974;-1.086;2023-04-23T06:05:34;100003.17;;;11.02;76.04
33265;BME280;31404;53.974;-1.086;2023-04-23T06:10:34;100005.02;;;10.81;76.20
33265;BME280;31404;53.974;-1.086;2023-04-23T06:15:34;100004.27;;;9.99;79.44
33265;BME280;31404;53.974;-1.086;2023-04-23T06:20:34;100002.79;;;10.15;79.82
33265;BME280;31404;53.974;-1.086;2023-04-23T06:25:34;100002.21;;;10.01;81.38
33265;BME280;31404;53.974;-1.086;2023-04-23T06:30:34;100002.30;;;9.22;83.69
33265;BME280;31404;53.974;-1.086;2023-04-23T06:35:34;100006.88;;;8.56;86.52
33265;BME280;31404;53.974;-1.086;2023-04-23T06:40:34;100002.35;;;9.41;83.15
33265;BME280;31404;53.974;-1.086;2023-04-23T06:45:35;100009.32;;;8.93;87.95
33265;BME280;31404;53.974;-1.086;2023-04-23T06:50:34;100011.34;;;9.57;84.05
33265;BME280;31404;53.974;-1.086;2023-04-23T06:55:34;100008.00;;;10.41;81.36
33265;BME280;31404;53.974;-1.086;2023-04-23T07:00:34;100001.02;;;9.38;82.93
33265;BME280;31404;53.974;-1.086;2023-04-23T07:05:34;99999.70;;;10.19;80.72
33265;BME280;31404;53.974;-1.086;2023-04-23T07:10:34;100005.63;;;10.41;82.28
33265;BME280;31404;53.974;-1.086;2023-04-23T07:15:34;100008.62;;;9.92;83.49
33265;BME280;31404;53.974;-1.086;2023-04-23T07:20:35;100003.08;;;10.63;82.07
33265;BME280;31404;53.974;-1.086;2023-04-23T07:25:34;100009.61;;;10.12;83.28
33265;BME280;31404;53.974;-1.086;2023-04-23T07:30:35;100009.49;;;9.62;88.29
33265;BME280;31404;53.974;-1.086;2023-04-23T07:35:35;100014.39;;;8.33;95.35
33265;BME280;31404;53.974;-1.086;2023-04-23T07:40:36;100006.16;;;8.71;92.99
33265;BME280;31404;53.974;-1.086;2023-04-23T07:45:34;100001.56;;;9.17;91.98
33265;BME280;31404;53.974;-1.086;2023-04-23T07:50:34;100001.51;;;8.91;94.00
33265;BME280;31404;53.974;-1.086;2023-04-23T07:55:34;99996.65;;;9.72;89.18
33265;BME280;31404;53.974;-1.086;2023-04-23T08:00:35;99999.34;;;10.05;87.15
33265;BME280;31404;53.974;-1.086;2023-04-23T08:05:35;99999.20;;;7.97;95.63
33265;BME280;31404;53.974;-1.086;2023-04-23T08:10:35;100000.11;;;8.72;95.79
33265;BME280;31404;53.974;-1.086;2023-04-23T08:15:34;100001.29;;;10.03;88.62
33265;BME280;31404;53.974;-1.086;2023-04-23T08:20:35;100014.84;;;8.44;97.36
33265;BME280;31404;53.974;-1.086;2023-04-23T08:25:35;100003.68;;;9.82;91.34
33265;BME280;31404;53.974;-1.086;2023-04-23T08:30:35;100010.08;;;10.30;87.60
33265;BME280;31404;53.974;-1.086;2023-04-23T08:35:35;100008.37;;;9.74;87.83
33265;BME280;31404;53.974;-1.086;2023-04-23T08:40:36;100006.27;;;9.26;88.58
33265;BME280;31404;53.974;-1.086;2023-04-23T08:45:35;100015.28;;;8.75;91.89
33265;BME280;31404;53.974;-1.086;2023-04-23T08:50:37;100011.65;;;9.02;89.81
33265;BME280;31404;53.974;-1.086;2023-04-23T08:55:35;100015.69;;;8.68;93.16
33265;BME280;31404;53.974;-1.086;2023-04-23T09:00:29;100014.09;;;9.51;88.82
33265;BME280;31404;53.974;-1.086;2023-04-23T09:05:34;100012.39;;;9.22;89.53
33265;BME280;31404;53.974;-1.086;2023-04-23T09:10:36;100017.62;;;8.80;92.99
33265;BME280;31404;53.974;-1.086;2023-04-23T09:15:35;100022.82;;;8.86;90.77
33265;BME280;31404;53.974;-1.086;2023-04-23T09:20:34;100017.76;;;9.65;85.15
33265;BME280;31404;53.974;-1.086;2023-04-23T09:25:35;100021.45;;;9.90;85.39
33265;BME280;31404;53.974;-1.086;2023-04-23T09:35:34;100022.39;;;9.94;85.09
33265;BME280;31404;53.974;-1.086;2023-04-23T09:45:35;100032.11;;;9.04;85.87
33265;BME280;31404;53.974;-1.086;2023-04-23T09:50:36;100035.83;;;9.03;84.68
33265;BME280;31404;53.974;-1.086;2023-04-23T09:55:35;100029.34;;;11.17;77.42
33265;BME280;31404;53.974;-1.086;2023-04-23T10:00:36;100039.80;;;9.76;81.04
33265;BME280;31404;53.974;-1.086;2023-04-23T10:05:38;100034.41;;;9.42;82.49
33265;BME280;31404;53.974;-1.086;2023-04-23T10:10:34;100031.16;;;8.65;84.99
33265;BME280;31404;53.974;-1.086;2023-04-23T10:15:35;100026.52;;;9.38;82.72
33265;BME280;31404;53.974;-1.086;2023-04-23T10:20:34;100026.03;;;10.25;80.19
33265;BME280;31404;53.974;-1.086;2023-04-23T10:25:35;100025.03;;;9.57;79.01
33265;BME280;31404;53.974;-1.086;2023-04-23T10:30:35;100022.74;;;11.15;75.94
33265;BME280;31404;53.974;-1.086;2023-04-23T10:35:35;100023.28;;;10.28;78.44
33265;BME280;31404;53.974;-1.086;2023-04-23T10:45:34;100018.51;;;10.32;79.19
33265;BME280;31404;53.974;-1.086;2023-04-23T10:50:35;100017.42;;;10.92;73.93
33265;BME280;31404;53.974;-1.086;2023-04-23T10:55:35;100016.17;;;11.08;72.91
33265;BME280;31404;53.974;-1.086;2023-04-23T11:05:35;100031.85;;;9.91;76.98
33265;BME280;31404;53.974;-1.086;2023-04-23T11:15:34;100023.32;;;11.01;74.89
33265;BME280;31404;53.974;-1.086;2023-04-23T11:20:35;100028.81;;;11.85;72.11
33265;BME280;31404;53.974;-1.086;2023-04-23T11:25:35;100027.99;;;11.18;74.06
33265;BME280;31404;53.974;-1.086;2023-04-23T11:30:35;100026.98;;;9.85;78.68
33265;BME280;31404;53.974;-1.086;2023-04-23T11:35:35;100029.33;;;10.30;74.23
33265;BME280;31404;53.974;-1.086;2023-04-23T11:40:34;100037.89;;;10.03;75.45
33265;BME280;31404;53.974;-1.086;2023-04-23T11:45:35;100043.80;;;10.98;75.95
33265;BME280;31404;53.974;-1.086;2023-04-23T11:50:35;100049.21;;;11.30;73.89
33265;BME280;31404;53.974;-1.086;2023-04-23T11:55:35;100057.71;;;10.75;75.12
33265;BME280;31404;53.974;-1.086;2023-04-23T12:00:34;100061.37;;;10.76;76.33
33265;BME280;31404;53.974;-1.086;2023-04-23T12:05:40;100062.66;;;10.08;78.69
33265;BME280;31404;53.974;-1.086;2023-04-23T12:20:34;100074.49;;;9.97;77.72
33265;BME280;31404;53.974;-1.086;2023-04-23T12:25:35;100082.17;;;10.84;74.78
33265;BME280;31404;53.974;-1.086;2023-04-23T12:40:34;100086.82;;;11.16;71.60
33265;BME280;31404;53.974;-1.086;2023-04-23T12:45:36;100085.17;;;10.20;74.03
33265;BME280;31404;53.974;-1.086;2023-04-23T12:50:35;100087.87;;;10.68;75.17
33265;BME280;31404;53.974;-1.086;2023-04-23T12:55:34;100089.08;;;10.62;74.74
33265;BME280;31404;53.974;-1.086;2023-04-23T13:00:34;100088.22;;;11.50;70.45
33265;BME280;31404;53.974;-1.086;2023-04-23T13:05:34;100089.57;;;11.74;68.70
33265;BME280;31404;53.974;-1.086;2023-04-23T13:10:35;100094.30;;;10.68;70.88
33265;BME280;31404;53.974;-1.086;2023-04-23T13:15:35;100090.30;;;10.80;71.03
33265;BME280;31404;53.974;-1.086;2023-04-23T13:20:34;100092.48;;;10.69;70.00
33265;BME280;31404;53.974;-1.086;2023-04-23T13:25:34;100095.05;;;10.58;71.70
33265;BME280;31404;53.974;-1.086;2023-04-23T13:30:34;100096.34;;;10.66;70.99
33265;BME280;31404;53.974;-1.086;2023-04-23T13:35:34;100095.47;;;10.23;74.28
33265;BME280;31404;53.974;-1.086;2023-04-23T13:40:34;100093.71;;;11.36;66.65
33265;BME280;31404;53.974;-1.086;2023-04-23T13:45:34;100091.32;;;11.20;66.77
33265;BME280;31404;53.974;-1.086;2023-04-23T13:50:34;100093.33;;;10.03;69.63
33265;BME280;31404;53.974;-1.086;2023-04-23T13:55:35;100094.36;;;11.49;67.45
33265;BME280;31404;53.974;-1.086;2023-04-23T14:00:35;100096.02;;;11.98;65.51
33265;BME280;31404;53.974;-1.086;2023-04-23T14:05:35;100095.77;;;11.30;66.48
33265;BME280;31404;53.974;-1.086;2023-04-23T14:10:34;100091.57;;;11.35;67.65
33265;BME280;31404;53.974;-1.086;2023-04-23T14:15:34;100093.36;;;10.35;69.67
33265;BME280;31404;53.974;-1.086;2023-04-23T14:20:34;100088.28;;;10.37;71.68
33265;BME280;31404;53.974;-1.086;2023-04-23T14:30:34;100082.92;;;11.19;68.05
33265;BME280;31404;53.974;-1.086;2023-04-23T14:35:34;100090.84;;;11.42;67.46
33265;BME280;31404;53.974;-1.086;2023-04-23T14:40:34;100082.69;;;12.15;64.30
33265;BME280;31404;53.974;-1.086;2023-04-23T14:45:34;100080.80;;;11.76;64.10
33265;BME280;31404;53.974;-1.086;2023-04-23T14:50:34;100086.64;;;12.39;61.41
33265;BME280;31404;53.974;-1.086;2023-04-23T14:55:34;100085.76;;;11.54;63.70
33265;BME280;31404;53.974;-1.086;2023-04-23T15:00:34;100084.01;;;11.88;62.10
33265;BME280;31404;53.974;-1.086;2023-04-23T15:05:35;100077.63;;;11.66;63.62
33265;BME280;31404;53.974;-1.086;2023-04-23T15:10:36;100077.12;;;12.27;64.93
33265;BME280;31404;53.974;-1.086;2023-04-23T15:20:34;100079.13;;;11.35;64.84
33265;BME280;31404;53.974;-1.086;2023-04-23T15:25:35;100078.40;;;12.58;62.68
33265;BME280;31404;53.974;-1.086;2023-04-23T15:30:35;100079.17;;;10.84;63.17
33265;BME280;31404;53.974;-1.086;2023-04-23T15:35:35;100076.95;;;12.07;62.05
33265;BME280;31404;53.974;-1.086;2023-04-23T15:40:35;100080.21;;;10.99;63.25
33265;BME280;31404;53.974;-1.086;2023-04-23T15:45:35;100075.88;;;10.18;64.60
33265;BME280;31404;53.974;-1.086;2023-04-23T15:50:35;100080.01;;;11.65;62.01
33265;BME280;31404;53.974;-1.086;2023-04-23T15:55:35;100086.26;;;12.60;59.93
33265;BME280;31404;53.974;-1.086;2023-04-23T16:00:35;100085.14;;;13.17;60.26
33265;BME280;31404;53.974;-1.086;2023-04-23T16:10:34;100090.51;;;11.86;63.10
33265;BME280;31404;53.974;-1.086;2023-04-23T16:15:35;100093.30;;;12.20;62.77
33265;BME280;31404;53.974;-1.086;2023-04-23T16:20:35;100105.38;;;10.25;68.42
33265;BME280;31404;53.974;-1.086;2023-04-23T16:25:35;100109.22;;;11.09;66.40
33265;BME280;31404;53.974;-1.086;2023-04-23T16:30:35;100106.51;;;12.55;63.56
33265;BME280;31404;53.974;-1.086;2023-04-23T16:35:35;100103.56;;;12.16;64.30
33265;BME280;31404;53.974;-1.086;2023-04-23T16:40:35;100108.85;;;12.27;63.91
33265;BME280;31404;53.974;-1.086;2023-04-23T16:45:35;100113.63;;;11.68;65.96
33265;BME280;31404;53.974;-1.086;2023-04-23T16:50:34;100123.18;;;11.10;68.35
33265;BME280;31404;53.974;-1.086;2023-04-23T16:55:34;100134.35;;;11.20;69.16
33265;BME280;31404;53.974;-1.086;2023-04-23T17:00:35;100140.12;;;12.07;66.01
33265;BME280;31404;53.974;-1.086;2023-04-23T17:05:37;100152.66;;;10.04;71.36
33265;BME280;31404;53.974;-1.086;2023-04-23T17:10:35;100159.55;;;10.57;70.76
33265;BME280;31404;53.974;-1.086;2023-04-23T17:15:35;100170.12;;;10.74;70.72
33265;BME280;31404;53.974;-1.086;2023-04-23T17:20:35;100170.64;;;10.13;74.80
33265;BME280;31404;53.974;-1.086;2023-04-23T17:25:35;100177.90;;;10.76;73.35
33265;BME280;31404;53.974;-1.086;2023-04-23T17:30:35;100181.59;;;10.73;72.63
33265;BME280;31404;53.974;-1.086;2023-04-23T17:35:35;100199.18;;;9.14;76.42
33265;BME280;31404;53.974;-1.086;2023-04-23T17:40:35;100203.48;;;9.50;78.43
33265;BME280;31404;53.974;-1.086;2023-04-23T17:45:34;100199.94;;;11.00;73.14
33265;BME280;31404;53.974;-1.086;2023-04-23T17:50:35;100207.04;;;10.88;74.12
33265;BME280;31404;53.974;-1.086;2023-04-23T17:55:34;100214.12;;;10.20;75.11
33265;BME280;31404;53.974;-1.086;2023-04-23T18:00:35;100218.81;;;9.84;80.44
33265;BME280;31404;53.974;-1.086;2023-04-23T18:05:34;100226.98;;;9.65;80.41
33265;BME280;31404;53.974;-1.086;2023-04-23T18:10:35;100224.72;;;10.52;78.24
33265;BME280;31404;53.974;-1.086;2023-04-23T18:15:34;100230.20;;;10.36;78.71
33265;BME280;31404;53.974;-1.086;2023-04-23T18:20:35;100245.19;;;9.92;78.54
33265;BME280;31404;53.974;-1.086;2023-04-23T18:25:34;100240.38;;;10.51;75.33
33265;BME280;31404;53.974;-1.086;2023-04-23T18:30:36;100251.15;;;9.25;77.25
33265;BME280;31404;53.974;-1.086;2023-04-23T18:35:34;100256.92;;;11.11;72.63
33265;BME280;31404;53.974;-1.086;2023-04-23T18:40:34;100262.85;;;10.70;71.92
33265;BME280;31404;53.974;-1.086;2023-04-23T18:45:35;100276.90;;;9.77;76.81
33265;BME280;31404;53.974;-1.086;2023-04-23T18:50:36;100281.79;;;7.32;88.98
33265;BME280;31404;53.974;-1.086;2023-04-23T18:55:35;100291.61;;;9.16;81.73
33265;BME280;31404;53.974;-1.086;2023-04-23T19:00:35;100316.48;;;7.81;92.02
33265;BME280;31404;53.974;-1.086;2023-04-23T19:05:35;100314.43;;;8.40;92.56
33265;BME280;31404;53.974;-1.086;2023-04-23T19:10:35;100327.99;;;7.83;94.28
33265;BME280;31404;53.974;-1.086;2023-04-23T19:15:35;100338.67;;;6.60;96.81
33265;BME280;31404;53.974;-1.086;2023-04-23T19:20:35;100348.30;;;7.46;95.05
33265;BME280;31404;53.974;-1.086;2023-04-23T19:25:36;100357.64;;;7.08;97.16
33265;BME280;31404;53.974;-1.086;2023-04-23T19:30:35;100363.56;;;7.01;97.07
33265;BME280;31404;53.974;-1.086;2023-04-23T19:40:35;100385.09;;;5.49;100.00
33265;BME280;31404;53.974;-1.086;2023-04-23T19:45:35;100390.78;;;6.81;97.31
33265;BME280;31404;53.974;-1.086;2023-04-23T19:50:35;100400.76;;;6.38;98.83
33265;BME280;31404;53.974;-1.086;2023-04-23T19:55:34;100404.24;;;6.45;98.85
33265;BME280;31404;53.974;-1.086;2023-04-23T20:00:34;100411.30;;;5.78;97.83
33265;BME280;31404;53.974;-1.086;2023-04-23T20:05:40;100412.11;;;6.48;95.06
33265;BME280;31404;53.974;-1.086;2023-04-23T20:10:35;100414.27;;;5.19;97.89
33265;BME280;31404;53.974;-1.086;2023-04-23T20:15:35;100418.95;;;6.59;94.60
33265;BME280;31404;53.974;-1.086;2023-04-23T20:20:34;100412.91;;;7.52;89.89
33265;BME280;31404;53.974;-1.086;2023-04-23T20:25:35;100425.43;;;7.04;90.31
33265;BME280;31404;53.974;-1.086;2023-04-23T20:30:35;100428.64;;;7.35;87.99
33265;BME280;31404;53.974;-1.086;2023-04-23T20:35:34;100443.58;;;6.71;89.32
33265;BME280;31404;53.974;-1.086;2023-04-23T20:40:36;100436.66;;;5.43;94.31
33265;BME280;31404;53.974;-1.086;2023-04-23T20:45:35;100441.09;;;6.81;89.56
33265;BME280;31404;53.974;-1.086;2023-04-23T20:50:34;100444.05;;;7.46;85.93
33265;BME280;31404;53.974;-1.086;2023-04-23T20:55:34;100452.85;;;7.28;85.99
33265;BME280;31404;53.974;-1.086;2023-04-23T21:00:35;100454.77;;;6.29;89.63
33265;BME280;31404;53.974;-1.086;2023-04-23T21:05:35;100460.65;;;6.40;88.97
33265;BME280;31404;53.974;-1.086;2023-04-23T21:10:35;100466.54;;;6.86;86.12
33265;BME280;31404;53.974;-1.086;2023-04-23T21:15:35;100466.37;;;6.91;85.85
33265;BME280;31404;53.974;-1.086;2023-04-23T21:20:35;100465.06;;;6.72;87.37
33265;BME280;31404;53.974;-1.086;2023-04-23T21:25:35;100461.70;;;6.80;87.89
33265;BME280;31404;53.974;-1.086;2023-04-23T21:35:35;100470.80;;;7.20;84.38
33265;BME280;31404;53.974;-1.086;2023-04-23T21:40:36;100477.22;;;5.96;87.25
33265;BME280;31404;53.974;-1.086;2023-04-23T21:45:35;100479.80;;;5.60;88.90
33265;BME280;31404;53.974;-1.086;2023-04-23T21:50:34;100481.08;;;6.20;86.67
33265;BME280;31404;53.974;-1.086;2023-04-23T21:55:34;100491.12;;;4.80;94.15
33265;BME280;31404;53.974;-1.086;2023-04-23T22:00:35;100494.38;;;4.64;92.91
33265;BME280;31404;53.974;-1.086;2023-04-23T22:05:35;100491.05;;;5.56;89.77
33265;BME280;31404;53.974;-1.086;2023-04-23T22:10:34;100488.22;;;5.59;89.78
33265;BME280;31404;53.974;-1.086;2023-04-23T22:15:34;100497.73;;;5.18;89.16
33265;BME280;31404;53.974;-1.086;2023-04-23T22:20:36;100504.15;;;4.62;91.58
33265;BME280;31404;53.974;-1.086;2023-04-23T22:25:35;100503.40;;;4.92;90.75
33265;BME280;31404;53.974;-1.086;2023-04-23T22:30:35;100507.24;;;5.02;89.01
33265;BME280;31404;53.974;-1.086;2023-04-23T22:35:34;100514.94;;;4.93;88.73
33265;BME280;31404;53.974;-1.086;2023-04-23T22:40:34;100513.51;;;5.69;84.65
33265;BME280;31404;53.974;-1.086;2023-04-23T22:45:34;100520.12;;;5.75;83.33
33265;BME280;31404;53.974;-1.086;2023-04-23T22:50:35;100528.02;;;5.18;87.31
33265;BME280;31404;53.974;-1.086;2023-04-23T22:55:35;100524.07;;;4.90;88.90
33265;BME280;31404;53.974;-1.086;2023-04-23T23:00:38;100527.85;;;4.84;88.44
33265;BME280;31404;53.974;-1.086;2023-04-23T23:05:34;100526.34;;;5.37;86.76
33265;BME280;31404;53.974;-1.086;2023-04-23T23:10:34;100525.56;;;5.74;86.53
33265;BME280;31404;53.974;-1.086;2023-04-23T23:15:34;100528.66;;;6.42;83.58
33265;BME280;31404;53.974;-1.086;2023-04-23T23:20:34;100537.13;;;7.34;80.62
33265;BME280;31404;53.974;-1.086;2023-04-23T23:25:35;100526.13;;;5.46;88.48
33265;BME280;31404;53.974;-1.086;2023-04-23T23:30:34;100526.85;;;5.55;89.84
33265;BME280;31404;53.974;-1.086;2023-04-23T23:35:34;100546.45;;;4.51;92.66
33265;BME280;31404;53.974;-1.086;2023-04-23T23:40:34;100547.14;;;3.83;95.98
33265;BME280;31404;53.974;-1.086;2023-04-23T23:45:35;100546.41;;;4.12;95.88
33265;BME280;31404;53.974;-1.086;2023-04-23T23:50:36;100560.58;;;3.80;97.74
33265;BME280;31404;53.974;-1.086;2023-04-23T23:55:34;100559.48;;;4.29;95.17
